Arnold, Michigan
Current Conditions -  °F | °C
As of 5:57 AM on Wednesday 22 Oct 2014 (Local Time) from KSAW Reporting Station
Clear Clear  
Wind Chill: -4°   Ceiling: Unl
Heat Index: -4°   Visibility: 10mi
Dew Point: -5°   Wind: 0mph
Humidity: 94%   Direction: NA
Pressure: 30.32"   Gusts: NA
Location:  46.05°N, 87.49°W
Report Text: KSAW 220957Z AUTO 00000KT 10SM CLR M04/M05 A3032 RMK AO2 T10401049
Loading
Personal Weather Stations






























Interactive Weather Map
Tropical Storm Tracking
New forecast layout! Learn more

10-Day Weather Forecast

Advertisements
Track Severe Weather on mobile